sensor_id;sensor_type;location;lat;lon;timestamp;P1;durP1;ratioP1;P2;durP2;ratioP2
48534;SDS011;34323;52.022;5.686;2023-02-11T00:01:08;17.25;;;8.23;;
48534;SDS011;34323;52.022;5.686;2023-02-11T00:03:36;19.45;;;7.35;;
48534;SDS011;34323;52.022;5.686;2023-02-11T00:06:03;27.02;;;7.60;;
48534;SDS011;34323;52.022;5.686;2023-02-11T00:08:33;17.35;;;7.20;;
48534;SDS011;34323;52.022;5.686;2023-02-11T00:10:59;17.27;;;7.40;;
48534;SDS011;34323;52.022;5.686;2023-02-11T00:13:25;17.95;;;6.90;;
48534;SDS011;34323;52.022;5.686;2023-02-11T00:15:51;20.58;;;6.82;;
48534;SDS011;34323;52.022;5.686;2023-02-11T00:18:17;23.27;;;7.80;;
48534;SDS011;34323;52.022;5.686;2023-02-11T00:20:42;19.63;;;7.22;;
48534;SDS011;34323;52.022;5.686;2023-02-11T00:23:08;18.23;;;7.57;;
48534;SDS011;34323;52.022;5.686;2023-02-11T00:25:37;16.00;;;7.07;;
48534;SDS011;34323;52.022;5.686;2023-02-11T00:28:07;16.13;;;7.00;;
48534;SDS011;34323;52.022;5.686;2023-02-11T00:30:34;21.00;;;7.35;;
48534;SDS011;34323;52.022;5.686;2023-02-11T00:32:59;29.10;;;8.13;;
48534;SDS011;34323;52.022;5.686;2023-02-11T00:35:25;20.92;;;6.53;;
48534;SDS011;34323;52.022;5.686;2023-02-11T00:37:52;29.23;;;7.95;;
48534;SDS011;34323;52.022;5.686;2023-02-11T00:40:18;25.98;;;7.90;;
48534;SDS011;34323;52.022;5.686;2023-02-11T00:42:44;20.88;;;7.57;;
48534;SDS011;34323;52.022;5.686;2023-02-11T00:45:10;18.88;;;7.18;;
48534;SDS011;34323;52.022;5.686;2023-02-11T00:47:36;15.57;;;7.00;;
48534;SDS011;34323;52.022;5.686;2023-02-11T00:50:02;17.52;;;6.80;;
48534;SDS011;34323;52.022;5.686;2023-02-11T00:52:29;17.50;;;7.03;;
48534;SDS011;34323;52.022;5.686;2023-02-11T00:54:55;15.88;;;6.90;;
48534;SDS011;34323;52.022;5.686;2023-02-11T00:57:21;18.25;;;6.10;;
48534;SDS011;34323;52.022;5.686;2023-02-11T00:59:47;23.25;;;7.15;;
48534;SDS011;34323;52.022;5.686;2023-02-11T01:02:12;20.75;;;6.38;;
48534;SDS011;34323;52.022;5.686;2023-02-11T01:04:38;21.42;;;8.15;;
48534;SDS011;34323;52.022;5.686;2023-02-11T01:07:03;19.25;;;6.95;;
48534;SDS011;34323;52.022;5.686;2023-02-11T01:09:29;19.10;;;6.70;;
48534;SDS011;34323;52.022;5.686;2023-02-11T01:11:55;23.60;;;7.70;;
48534;SDS011;34323;52.022;5.686;2023-02-11T01:14:20;24.88;;;6.57;;
48534;SDS011;34323;52.022;5.686;2023-02-11T01:16:46;18.23;;;6.95;;
48534;SDS011;34323;52.022;5.686;2023-02-11T01:19:11;19.92;;;7.38;;
48534;SDS011;34323;52.022;5.686;2023-02-11T01:21:37;20.50;;;7.05;;
48534;SDS011;34323;52.022;5.686;2023-02-11T01:24:02;12.98;;;5.97;;
48534;SDS011;34323;52.022;5.686;2023-02-11T01:26:28;19.45;;;6.45;;
48534;SDS011;34323;52.022;5.686;2023-02-11T01:28:54;16.60;;;5.47;;
48534;SDS011;34323;52.022;5.686;2023-02-11T01:31:19;16.70;;;5.85;;
48534;SDS011;34323;52.022;5.686;2023-02-11T01:33:45;12.90;;;5.43;;
48534;SDS011;34323;52.022;5.686;2023-02-11T01:36:10;17.60;;;6.43;;
48534;SDS011;34323;52.022;5.686;2023-02-11T01:38:37;19.60;;;5.90;;
48534;SDS011;34323;52.022;5.686;2023-02-11T01:41:05;14.57;;;5.13;;
48534;SDS011;34323;52.022;5.686;2023-02-11T01:43:37;16.00;;;5.10;;
48534;SDS011;34323;52.022;5.686;2023-02-11T01:46:12;9.70;;;4.10;;
48534;SDS011;34323;52.022;5.686;2023-02-11T01:48:49;15.05;;;5.35;;
48534;SDS011;34323;52.022;5.686;2023-02-11T01:51:23;15.07;;;5.82;;
48534;SDS011;34323;52.022;5.686;2023-02-11T01:53:51;16.45;;;5.30;;
48534;SDS011;34323;52.022;5.686;2023-02-11T01:56:37;17.88;;;5.10;;
48534;SDS011;34323;52.022;5.686;2023-02-11T01:59:29;21.25;;;6.30;;
48534;SDS011;34323;52.022;5.686;2023-02-11T02:01:59;17.30;;;6.22;;
48534;SDS011;34323;52.022;5.686;2023-02-11T02:04:30;18.15;;;5.85;;
48534;SDS011;34323;52.022;5.686;2023-02-11T02:07:05;15.38;;;5.22;;
48534;SDS011;34323;52.022;5.686;2023-02-11T02:09:37;17.63;;;5.10;;
48534;SDS011;34323;52.022;5.686;2023-02-11T02:12:07;13.82;;;5.00;;
48534;SDS011;34323;52.022;5.686;2023-02-11T02:14:36;19.40;;;5.50;;
48534;SDS011;34323;52.022;5.686;2023-02-11T02:17:02;17.63;;;4.85;;
48534;SDS011;34323;52.022;5.686;2023-02-11T02:30:15;17.98;;;5.60;;
48534;SDS011;34323;52.022;5.686;2023-02-11T02:32:51;17.98;;;5.40;;
48534;SDS011;34323;52.022;5.686;2023-02-11T02:38:06;17.70;;;6.43;;
48534;SDS011;34323;52.022;5.686;2023-02-11T02:40:47;17.50;;;4.93;;
48534;SDS011;34323;52.022;5.686;2023-02-11T02:43:21;17.70;;;4.90;;
48534;SDS011;34323;52.022;5.686;2023-02-11T02:45:50;17.23;;;5.55;;
48534;SDS011;34323;52.022;5.686;2023-02-11T02:48:29;19.08;;;6.32;;
48534;SDS011;34323;52.022;5.686;2023-02-11T02:56:21;18.85;;;6.40;;
48534;SDS011;34323;52.022;5.686;2023-02-11T02:59:02;13.40;;;5.32;;
48534;SDS011;34323;52.022;5.686;2023-02-11T03:02:01;21.08;;;6.25;;
48534;SDS011;34323;52.022;5.686;2023-02-11T03:07:02;17.40;;;6.47;;
48534;SDS011;34323;52.022;5.686;2023-02-11T03:09:37;19.40;;;6.97;;
48534;SDS011;34323;52.022;5.686;2023-02-11T03:14:35;12.98;;;6.75;;
48534;SDS011;34323;52.022;5.686;2023-02-11T03:17:03;18.52;;;6.35;;
48534;SDS011;34323;52.022;5.686;2023-02-11T03:19:34;12.40;;;5.80;;
48534;SDS011;34323;52.022;5.686;2023-02-11T03:22:04;28.67;;;7.03;;
48534;SDS011;34323;52.022;5.686;2023-02-11T03:24:36;21.13;;;6.43;;
48534;SDS011;34323;52.022;5.686;2023-02-11T03:27:11;20.05;;;6.90;;
48534;SDS011;34323;52.022;5.686;2023-02-11T03:29:49;23.35;;;7.45;;
48534;SDS011;34323;52.022;5.686;2023-02-11T03:32:23;23.45;;;8.25;;
48534;SDS011;34323;52.022;5.686;2023-02-11T03:34:56;20.52;;;7.18;;
48534;SDS011;34323;52.022;5.686;2023-02-11T03:37:27;15.77;;;6.97;;
48534;SDS011;34323;52.022;5.686;2023-02-11T03:39:54;21.98;;;7.78;;
48534;SDS011;34323;52.022;5.686;2023-02-11T03:42:31;18.80;;;7.88;;
48534;SDS011;34323;52.022;5.686;2023-02-11T03:45:05;24.30;;;9.00;;
48534;SDS011;34323;52.022;5.686;2023-02-11T03:47:35;17.45;;;7.43;;
48534;SDS011;34323;52.022;5.686;2023-02-11T03:50:04;23.77;;;8.40;;
48534;SDS011;34323;52.022;5.686;2023-02-11T03:52:33;21.15;;;8.18;;
48534;SDS011;34323;52.022;5.686;2023-02-11T03:55:00;20.95;;;7.43;;
48534;SDS011;34323;52.022;5.686;2023-02-11T03:57:29;24.60;;;7.78;;
48534;SDS011;34323;52.022;5.686;2023-02-11T03:59:58;19.88;;;8.23;;
48534;SDS011;34323;52.022;5.686;2023-02-11T04:02:31;26.02;;;9.35;;
48534;SDS011;34323;52.022;5.686;2023-02-11T04:04:59;25.88;;;8.07;;
48534;SDS011;34323;52.022;5.686;2023-02-11T04:07:25;19.63;;;8.43;;
48534;SDS011;34323;52.022;5.686;2023-02-11T04:09:51;23.10;;;8.00;;
48534;SDS011;34323;52.022;5.686;2023-02-11T04:12:17;24.05;;;9.00;;
48534;SDS011;34323;52.022;5.686;2023-02-11T04:14:43;19.38;;;9.13;;
48534;SDS011;34323;52.022;5.686;2023-02-11T04:17:08;20.35;;;7.63;;
48534;SDS011;34323;52.022;5.686;2023-02-11T04:19:35;29.15;;;10.35;;
48534;SDS011;34323;52.022;5.686;2023-02-11T04:22:00;24.17;;;10.25;;
48534;SDS011;34323;52.022;5.686;2023-02-11T04:24:26;24.58;;;9.02;;
48534;SDS011;34323;52.022;5.686;2023-02-11T04:26:52;27.95;;;9.77;;
48534;SDS011;34323;52.022;5.686;2023-02-11T04:29:17;31.02;;;9.82;;
48534;SDS011;34323;52.022;5.686;2023-02-11T04:31:43;23.40;;;10.20;;
48534;SDS011;34323;52.022;5.686;2023-02-11T04:34:09;20.65;;;9.32;;
48534;SDS011;34323;52.022;5.686;2023-02-11T04:36:34;31.60;;;11.30;;
48534;SDS011;34323;52.022;5.686;2023-02-11T04:39:00;23.77;;;10.63;;
48534;SDS011;34323;52.022;5.686;2023-02-11T04:41:25;26.55;;;10.07;;
48534;SDS011;34323;52.022;5.686;2023-02-11T04:43:51;23.50;;;10.18;;
48534;SDS011;34323;52.022;5.686;2023-02-11T04:46:16;28.73;;;11.05;;
48534;SDS011;34323;52.022;5.686;2023-02-11T04:48:42;32.47;;;9.80;;
48534;SDS011;34323;52.022;5.686;2023-02-11T04:51:08;30.55;;;10.52;;
48534;SDS011;34323;52.022;5.686;2023-02-11T04:53:33;25.83;;;10.85;;
48534;SDS011;34323;52.022;5.686;2023-02-11T04:55:59;28.77;;;10.38;;
48534;SDS011;34323;52.022;5.686;2023-02-11T04:58:24;25.92;;;10.35;;
48534;SDS011;34323;52.022;5.686;2023-02-11T05:00:50;25.33;;;10.70;;
48534;SDS011;34323;52.022;5.686;2023-02-11T05:03:16;26.77;;;11.55;;
48534;SDS011;34323;52.022;5.686;2023-02-11T05:05:41;24.17;;;11.68;;
48534;SDS011;34323;52.022;5.686;2023-02-11T05:08:08;25.25;;;10.90;;
48534;SDS011;34323;52.022;5.686;2023-02-11T05:10:34;27.33;;;12.48;;
48534;SDS011;34323;52.022;5.686;2023-02-11T05:13:00;33.05;;;11.10;;
48534;SDS011;34323;52.022;5.686;2023-02-11T05:15:25;28.55;;;11.25;;
48534;SDS011;34323;52.022;5.686;2023-02-11T05:17:51;26.50;;;11.40;;
48534;SDS011;34323;52.022;5.686;2023-02-11T05:20:17;37.22;;;12.15;;
48534;SDS011;34323;52.022;5.686;2023-02-11T05:22:42;22.50;;;11.10;;
48534;SDS011;34323;52.022;5.686;2023-02-11T05:25:08;21.25;;;10.30;;
48534;SDS011;34323;52.022;5.686;2023-02-11T05:27:34;26.23;;;10.95;;
48534;SDS011;34323;52.022;5.686;2023-02-11T05:29:59;25.00;;;11.20;;
48534;SDS011;34323;52.022;5.686;2023-02-11T05:32:25;25.02;;;11.63;;
48534;SDS011;34323;52.022;5.686;2023-02-11T05:34:50;29.48;;;11.88;;
48534;SDS011;34323;52.022;5.686;2023-02-11T05:37:16;25.80;;;11.52;;
48534;SDS011;34323;52.022;5.686;2023-02-11T05:39:42;28.63;;;12.23;;
48534;SDS011;34323;52.022;5.686;2023-02-11T05:42:07;26.40;;;11.88;;
48534;SDS011;34323;52.022;5.686;2023-02-11T05:44:33;29.38;;;12.70;;
48534;SDS011;34323;52.022;5.686;2023-02-11T05:46:59;22.75;;;11.65;;
48534;SDS011;34323;52.022;5.686;2023-02-11T05:49:24;33.88;;;13.88;;
48534;SDS011;34323;52.022;5.686;2023-02-11T05:51:50;27.48;;;13.07;;
48534;SDS011;34323;52.022;5.686;2023-02-11T05:54:15;29.70;;;13.05;;
48534;SDS011;34323;52.022;5.686;2023-02-11T05:56:41;33.50;;;13.70;;
48534;SDS011;34323;52.022;5.686;2023-02-11T05:59:07;28.00;;;13.43;;
48534;SDS011;34323;52.022;5.686;2023-02-11T06:01:33;38.60;;;14.68;;
48534;SDS011;34323;52.022;5.686;2023-02-11T06:03:58;34.92;;;14.55;;
48534;SDS011;34323;52.022;5.686;2023-02-11T06:06:24;50.05;;;16.33;;
48534;SDS011;34323;52.022;5.686;2023-02-11T06:08:50;25.48;;;13.07;;
48534;SDS011;34323;52.022;5.686;2023-02-11T06:11:15;35.53;;;14.55;;
48534;SDS011;34323;52.022;5.686;2023-02-11T06:13:42;39.10;;;14.93;;
48534;SDS011;34323;52.022;5.686;2023-02-11T06:16:07;33.22;;;14.75;;
48534;SDS011;34323;52.022;5.686;2023-02-11T06:18:33;29.88;;;14.80;;
48534;SDS011;34323;52.022;5.686;2023-02-11T06:20:59;29.58;;;14.20;;
48534;SDS011;34323;52.022;5.686;2023-02-11T06:23:24;41.95;;;14.48;;
48534;SDS011;34323;52.022;5.686;2023-02-11T06:25:50;38.30;;;15.40;;
48534;SDS011;34323;52.022;5.686;2023-02-11T06:28:17;41.35;;;16.65;;
48534;SDS011;34323;52.022;5.686;2023-02-11T06:30:43;35.72;;;15.20;;
48534;SDS011;34323;52.022;5.686;2023-02-11T06:33:08;35.17;;;15.45;;
48534;SDS011;34323;52.022;5.686;2023-02-11T06:35:34;32.67;;;15.75;;
48534;SDS011;34323;52.022;5.686;2023-02-11T06:38:02;35.45;;;14.93;;
48534;SDS011;34323;52.022;5.686;2023-02-11T06:40:28;35.53;;;15.48;;
48534;SDS011;34323;52.022;5.686;2023-02-11T06:42:54;31.95;;;15.68;;
48534;SDS011;34323;52.022;5.686;2023-02-11T06:45:19;31.15;;;13.90;;
48534;SDS011;34323;52.022;5.686;2023-02-11T06:47:45;31.08;;;16.17;;
48534;SDS011;34323;52.022;5.686;2023-02-11T06:50:12;31.10;;;15.15;;
48534;SDS011;34323;52.022;5.686;2023-02-11T06:52:38;41.22;;;16.83;;
48534;SDS011;34323;52.022;5.686;2023-02-11T06:55:04;38.80;;;16.05;;
48534;SDS011;34323;52.022;5.686;2023-02-11T06:57:30;31.23;;;16.20;;
48534;SDS011;34323;52.022;5.686;2023-02-11T06:59:56;39.85;;;16.40;;
48534;SDS011;34323;52.022;5.686;2023-02-11T07:02:21;32.45;;;16.05;;
48534;SDS011;34323;52.022;5.686;2023-02-11T07:04:47;39.63;;;15.90;;
48534;SDS011;34323;52.022;5.686;2023-02-11T07:07:13;36.38;;;16.90;;
48534;SDS011;34323;52.022;5.686;2023-02-11T07:09:38;37.67;;;18.08;;
48534;SDS011;34323;52.022;5.686;2023-02-11T07:12:04;49.72;;;18.65;;
48534;SDS011;34323;52.022;5.686;2023-02-11T07:14:30;39.85;;;18.00;;
48534;SDS011;34323;52.022;5.686;2023-02-11T07:16:55;38.35;;;17.25;;
48534;SDS011;34323;52.022;5.686;2023-02-11T07:19:21;49.63;;;17.98;;
48534;SDS011;34323;52.022;5.686;2023-02-11T07:21:47;49.20;;;19.42;;
48534;SDS011;34323;52.022;5.686;2023-02-11T07:24:13;51.58;;;19.00;;
48534;SDS011;34323;52.022;5.686;2023-02-11T07:26:38;52.30;;;20.13;;
48534;SDS011;34323;52.022;5.686;2023-02-11T07:29:04;41.78;;;18.70;;
48534;SDS011;34323;52.022;5.686;2023-02-11T07:31:30;39.17;;;18.20;;
48534;SDS011;34323;52.022;5.686;2023-02-11T07:33:57;42.28;;;17.83;;
48534;SDS011;34323;52.022;5.686;2023-02-11T07:36:24;50.38;;;20.13;;
48534;SDS011;34323;52.022;5.686;2023-02-11T07:38:50;41.17;;;19.02;;
48534;SDS011;34323;52.022;5.686;2023-02-11T07:41:18;37.60;;;17.70;;
48534;SDS011;34323;52.022;5.686;2023-02-11T07:43:45;52.50;;;19.95;;
48534;SDS011;34323;52.022;5.686;2023-02-11T07:46:18;41.25;;;19.63;;
48534;SDS011;34323;52.022;5.686;2023-02-11T07:48:45;44.83;;;20.25;;
48534;SDS011;34323;52.022;5.686;2023-02-11T07:51:15;48.97;;;20.02;;
48534;SDS011;34323;52.022;5.686;2023-02-11T07:53:49;43.60;;;18.95;;
48534;SDS011;34323;52.022;5.686;2023-02-11T07:56:16;55.63;;;19.85;;
48534;SDS011;34323;52.022;5.686;2023-02-11T07:58:43;44.47;;;20.60;;
48534;SDS011;34323;52.022;5.686;2023-02-11T08:01:10;53.47;;;22.27;;
48534;SDS011;34323;52.022;5.686;2023-02-11T08:03:37;46.85;;;20.33;;
48534;SDS011;34323;52.022;5.686;2023-02-11T08:06:14;45.33;;;19.23;;
48534;SDS011;34323;52.022;5.686;2023-02-11T08:08:41;48.60;;;19.60;;
48534;SDS011;34323;52.022;5.686;2023-02-11T08:11:08;42.17;;;20.63;;
48534;SDS011;34323;52.022;5.686;2023-02-11T08:13:36;44.63;;;19.42;;
48534;SDS011;34323;52.022;5.686;2023-02-11T08:16:03;57.22;;;19.30;;
48534;SDS011;34323;52.022;5.686;2023-02-11T08:18:29;52.22;;;20.38;;
48534;SDS011;34323;52.022;5.686;2023-02-11T08:20:55;44.35;;;20.52;;
48534;SDS011;34323;52.022;5.686;2023-02-11T08:23:21;50.63;;;20.77;;
48534;SDS011;34323;52.022;5.686;2023-02-11T08:25:46;48.45;;;21.05;;
48534;SDS011;34323;52.022;5.686;2023-02-11T08:28:12;42.15;;;21.15;;
48534;SDS011;34323;52.022;5.686;2023-02-11T08:30:38;51.13;;;21.90;;
48534;SDS011;34323;52.022;5.686;2023-02-11T08:33:03;48.35;;;20.75;;
48534;SDS011;34323;52.022;5.686;2023-02-11T08:35:29;62.75;;;22.33;;
48534;SDS011;34323;52.022;5.686;2023-02-11T08:37:54;44.38;;;18.90;;
48534;SDS011;34323;52.022;5.686;2023-02-11T08:40:20;43.55;;;20.95;;
48534;SDS011;34323;52.022;5.686;2023-02-11T08:42:46;44.63;;;20.40;;
48534;SDS011;34323;52.022;5.686;2023-02-11T08:45:11;49.38;;;20.38;;
48534;SDS011;34323;52.022;5.686;2023-02-11T08:47:37;54.17;;;19.55;;
48534;SDS011;34323;52.022;5.686;2023-02-11T08:50:04;45.95;;;18.92;;
48534;SDS011;34323;52.022;5.686;2023-02-11T08:52:30;49.03;;;22.00;;
48534;SDS011;34323;52.022;5.686;2023-02-11T08:54:55;55.53;;;21.52;;
48534;SDS011;34323;52.022;5.686;2023-02-11T08:57:21;47.00;;;20.25;;
48534;SDS011;34323;52.022;5.686;2023-02-11T08:59:46;48.70;;;20.70;;
48534;SDS011;34323;52.022;5.686;2023-02-11T09:02:12;49.25;;;21.00;;
48534;SDS011;34323;52.022;5.686;2023-02-11T09:04:38;50.88;;;22.50;;
48534;SDS011;34323;52.022;5.686;2023-02-11T09:07:04;48.53;;;20.67;;
48534;SDS011;34323;52.022;5.686;2023-02-11T09:09:30;39.05;;;20.42;;
48534;SDS011;34323;52.022;5.686;2023-02-11T09:11:56;52.42;;;21.80;;
48534;SDS011;34323;52.022;5.686;2023-02-11T09:14:22;47.13;;;21.70;;
48534;SDS011;34323;52.022;5.686;2023-02-11T09:16:48;45.78;;;21.83;;
48534;SDS011;34323;52.022;5.686;2023-02-11T09:19:15;48.58;;;22.13;;
48534;SDS011;34323;52.022;5.686;2023-02-11T09:21:41;59.00;;;22.55;;
48534;SDS011;34323;52.022;5.686;2023-02-11T09:24:08;50.80;;;22.48;;
48534;SDS011;34323;52.022;5.686;2023-02-11T09:26:35;53.05;;;22.33;;
48534;SDS011;34323;52.022;5.686;2023-02-11T09:29:02;42.38;;;21.70;;
48534;SDS011;34323;52.022;5.686;2023-02-11T09:31:29;48.05;;;22.20;;
48534;SDS011;34323;52.022;5.686;2023-02-11T09:33:57;63.58;;;24.15;;
48534;SDS011;34323;52.022;5.686;2023-02-11T09:36:26;46.58;;;20.65;;
48534;SDS011;34323;52.022;5.686;2023-02-11T09:38:54;47.40;;;22.10;;
48534;SDS011;34323;52.022;5.686;2023-02-11T09:44:03;45.25;;;21.50;;
48534;SDS011;34323;52.022;5.686;2023-02-11T09:46:34;48.25;;;21.10;;
48534;SDS011;34323;52.022;5.686;2023-02-11T09:49:03;42.10;;;20.85;;
48534;SDS011;34323;52.022;5.686;2023-02-11T09:51:41;42.78;;;22.38;;
48534;SDS011;34323;52.022;5.686;2023-02-11T09:54:14;43.17;;;20.77;;
48534;SDS011;34323;52.022;5.686;2023-02-11T09:56:52;54.45;;;22.58;;
48534;SDS011;34323;52.022;5.686;2023-02-11T09:59:18;49.67;;;22.13;;
48534;SDS011;34323;52.022;5.686;2023-02-11T10:07:16;40.38;;;20.33;;
48534;SDS011;34323;52.022;5.686;2023-02-11T10:10:01;41.88;;;21.38;;
48534;SDS011;34323;52.022;5.686;2023-02-11T10:12:51;44.95;;;21.58;;
48534;SDS011;34323;52.022;5.686;2023-02-11T10:23:21;38.47;;;18.73;;
48534;SDS011;34323;52.022;5.686;2023-02-11T10:25:53;32.45;;;18.55;;
48534;SDS011;34323;52.022;5.686;2023-02-11T10:28:27;34.65;;;19.08;;
48534;SDS011;34323;52.022;5.686;2023-02-11T10:31:02;47.70;;;20.10;;
48534;SDS011;34323;52.022;5.686;2023-02-11T10:36:19;31.40;;;18.55;;
48534;SDS011;34323;52.022;5.686;2023-02-11T10:38:48;41.70;;;18.58;;
48534;SDS011;34323;52.022;5.686;2023-02-11T10:41:19;30.25;;;16.88;;
48534;SDS011;34323;52.022;5.686;2023-02-11T10:43:49;30.88;;;16.27;;
48534;SDS011;34323;52.022;5.686;2023-02-11T10:46:16;35.95;;;17.98;;
48534;SDS011;34323;52.022;5.686;2023-02-11T10:48:47;37.25;;;18.08;;
48534;SDS011;34323;52.022;5.686;2023-02-11T10:51:26;31.02;;;17.48;;
48534;SDS011;34323;52.022;5.686;2023-02-11T10:56:28;29.88;;;16.77;;
48534;SDS011;34323;52.022;5.686;2023-02-11T10:59:03;32.47;;;16.60;;
48534;SDS011;34323;52.022;5.686;2023-02-11T11:01:48;33.75;;;15.23;;
48534;SDS011;34323;52.022;5.686;2023-02-11T11:06:56;25.88;;;16.77;;
48534;SDS011;34323;52.022;5.686;2023-02-11T11:09:42;26.67;;;16.23;;
48534;SDS011;34323;52.022;5.686;2023-02-11T11:15:19;28.35;;;15.80;;
48534;SDS011;34323;52.022;5.686;2023-02-11T11:17:52;24.75;;;14.07;;
48534;SDS011;34323;52.022;5.686;2023-02-11T11:20:43;33.93;;;15.67;;
48534;SDS011;34323;52.022;5.686;2023-02-11T11:23:23;28.38;;;14.32;;
48534;SDS011;34323;52.022;5.686;2023-02-11T11:31:12;25.65;;;13.30;;
48534;SDS011;34323;52.022;5.686;2023-02-11T11:33:40;22.15;;;13.80;;
48534;SDS011;34323;52.022;5.686;2023-02-11T11:36:09;23.23;;;13.20;;
48534;SDS011;34323;52.022;5.686;2023-02-11T11:38:42;19.92;;;11.88;;
48534;SDS011;34323;52.022;5.686;2023-02-11T11:41:18;19.90;;;11.75;;
48534;SDS011;34323;52.022;5.686;2023-02-11T11:43:56;19.85;;;12.38;;
48534;SDS011;34323;52.022;5.686;2023-02-11T11:46:48;21.27;;;11.05;;
48534;SDS011;34323;52.022;5.686;2023-02-11T11:49:32;19.13;;;10.73;;
48534;SDS011;34323;52.022;5.686;2023-02-11T11:54:36;21.13;;;10.70;;
48534;SDS011;34323;52.022;5.686;2023-02-11T11:57:14;21.45;;;12.05;;
48534;SDS011;34323;52.022;5.686;2023-02-11T11:59:43;20.92;;;10.63;;
48534;SDS011;34323;52.022;5.686;2023-02-11T12:04:41;19.45;;;10.63;;
48534;SDS011;34323;52.022;5.686;2023-02-11T12:09:59;18.05;;;10.88;;
48534;SDS011;34323;52.022;5.686;2023-02-11T12:12:43;19.25;;;10.48;;
48534;SDS011;34323;52.022;5.686;2023-02-11T12:15:31;16.73;;;9.63;;
48534;SDS011;34323;52.022;5.686;2023-02-11T12:23:46;19.75;;;9.05;;
48534;SDS011;34323;52.022;5.686;2023-02-11T12:29:36;16.08;;;9.27;;
48534;SDS011;34323;52.022;5.686;2023-02-11T12:35:15;12.90;;;8.02;;
48534;SDS011;34323;52.022;5.686;2023-02-11T12:37:48;16.00;;;8.60;;
48534;SDS011;34323;52.022;5.686;2023-02-11T12:48:40;14.60;;;9.27;;
48534;SDS011;34323;52.022;5.686;2023-02-11T12:51:35;14.60;;;9.25;;
48534;SDS011;34323;52.022;5.686;2023-02-11T12:54:26;17.08;;;9.85;;
48534;SDS011;34323;52.022;5.686;2023-02-11T12:59:37;14.73;;;9.73;;
48534;SDS011;34323;52.022;5.686;2023-02-11T13:02:14;20.05;;;9.38;;
48534;SDS011;34323;52.022;5.686;2023-02-11T13:05:04;20.92;;;9.65;;
48534;SDS011;34323;52.022;5.686;2023-02-11T13:07:47;17.40;;;8.77;;
48534;SDS011;34323;52.022;5.686;2023-02-11T13:10:23;15.88;;;8.98;;
48534;SDS011;34323;52.022;5.686;2023-02-11T13:12:53;16.30;;;7.93;;
48534;SDS011;34323;52.022;5.686;2023-02-11T13:15:38;19.38;;;8.40;;
48534;SDS011;34323;52.022;5.686;2023-02-11T13:26:18;19.75;;;9.55;;
48534;SDS011;34323;52.022;5.686;2023-02-11T13:29:00;15.95;;;9.25;;
48534;SDS011;34323;52.022;5.686;2023-02-11T13:31:54;19.20;;;10.27;;
48534;SDS011;34323;52.022;5.686;2023-02-11T13:37:18;18.38;;;10.15;;
48534;SDS011;34323;52.022;5.686;2023-02-11T13:40:00;20.63;;;10.50;;
48534;SDS011;34323;52.022;5.686;2023-02-11T13:42:29;16.67;;;9.60;;
48534;SDS011;34323;52.022;5.686;2023-02-11T13:44:56;24.95;;;10.27;;
48534;SDS011;34323;52.022;5.686;2023-02-11T13:47:26;19.90;;;10.93;;
48534;SDS011;34323;52.022;5.686;2023-02-11T13:49:55;14.15;;;9.38;;
48534;SDS011;34323;52.022;5.686;2023-02-11T13:52:23;14.57;;;10.23;;
48534;SDS011;34323;52.022;5.686;2023-02-11T13:54:55;20.50;;;11.18;;
48534;SDS011;34323;52.022;5.686;2023-02-11T13:57:30;15.80;;;9.77;;
48534;SDS011;34323;52.022;5.686;2023-02-11T14:00:02;18.00;;;9.82;;
48534;SDS011;34323;52.022;5.686;2023-02-11T14:02:47;18.00;;;10.20;;
48534;SDS011;34323;52.022;5.686;2023-02-11T14:09:31;14.77;;;9.10;;
48534;SDS011;34323;52.022;5.686;2023-02-11T14:14:58;15.32;;;8.77;;
48534;SDS011;34323;52.022;5.686;2023-02-11T14:17:32;15.52;;;8.77;;
48534;SDS011;34323;52.022;5.686;2023-02-11T14:20:00;17.45;;;7.68;;
48534;SDS011;34323;52.022;5.686;2023-02-11T14:22:46;12.23;;;7.10;;
48534;SDS011;34323;52.022;5.686;2023-02-11T14:25:16;17.67;;;8.18;;
48534;SDS011;34323;52.022;5.686;2023-02-11T14:33:04;16.58;;;8.40;;
48534;SDS011;34323;52.022;5.686;2023-02-11T14:35:48;11.45;;;7.82;;
48534;SDS011;34323;52.022;5.686;2023-02-11T14:38:26;13.93;;;7.97;;
48534;SDS011;34323;52.022;5.686;2023-02-11T14:41:05;13.35;;;7.85;;
48534;SDS011;34323;52.022;5.686;2023-02-11T14:43:39;12.65;;;7.30;;
48534;SDS011;34323;52.022;5.686;2023-02-11T14:46:11;10.88;;;6.43;;
48534;SDS011;34323;52.022;5.686;2023-02-11T14:48:42;11.70;;;5.60;;
48534;SDS011;34323;52.022;5.686;2023-02-11T14:51:20;14.27;;;5.55;;
48534;SDS011;34323;52.022;5.686;2023-02-11T14:53:53;12.90;;;5.18;;
48534;SDS011;34323;52.022;5.686;2023-02-11T14:56:28;10.45;;;4.78;;
48534;SDS011;34323;52.022;5.686;2023-02-11T14:58:56;8.45;;;4.70;;
48534;SDS011;34323;52.022;5.686;2023-02-11T15:01:32;12.90;;;5.40;;
48534;SDS011;34323;52.022;5.686;2023-02-11T15:04:00;9.60;;;4.72;;
48534;SDS011;34323;52.022;5.686;2023-02-11T15:06:32;14.95;;;5.25;;
48534;SDS011;34323;52.022;5.686;2023-02-11T15:09:03;12.27;;;5.30;;
48534;SDS011;34323;52.022;5.686;2023-02-11T15:11:39;13.07;;;5.40;;
48534;SDS011;34323;52.022;5.686;2023-02-11T15:14:25;7.63;;;4.88;;
48534;SDS011;34323;52.022;5.686;2023-02-11T15:16:52;12.18;;;5.55;;
48534;SDS011;34323;52.022;5.686;2023-02-11T15:19:35;9.73;;;5.32;;
48534;SDS011;34323;52.022;5.686;2023-02-11T15:22:04;7.85;;;5.30;;
48534;SDS011;34323;52.022;5.686;2023-02-11T15:24:34;10.07;;;5.53;;
48534;SDS011;34323;52.022;5.686;2023-02-11T15:27:08;9.65;;;5.40;;
48534;SDS011;34323;52.022;5.686;2023-02-11T15:29:48;13.77;;;5.85;;
48534;SDS011;34323;52.022;5.686;2023-02-11T15:32:15;10.00;;;5.82;;
48534;SDS011;34323;52.022;5.686;2023-02-11T15:34:44;9.68;;;5.88;;
48534;SDS011;34323;52.022;5.686;2023-02-11T15:37:12;10.90;;;5.88;;
48534;SDS011;34323;52.022;5.686;2023-02-11T15:39:43;12.77;;;6.70;;
48534;SDS011;34323;52.022;5.686;2023-02-11T15:44:40;10.65;;;5.70;;
48534;SDS011;34323;52.022;5.686;2023-02-11T15:47:08;8.57;;;5.93;;
48534;SDS011;34323;52.022;5.686;2023-02-11T15:49:43;10.98;;;7.47;;
48534;SDS011;34323;52.022;5.686;2023-02-11T15:52:10;12.45;;;7.88;;
48534;SDS011;34323;52.022;5.686;2023-02-11T15:54:37;16.10;;;7.60;;
48534;SDS011;34323;52.022;5.686;2023-02-11T15:57:04;15.85;;;7.28;;
48534;SDS011;34323;52.022;5.686;2023-02-11T15:59:34;16.17;;;6.75;;
48534;SDS011;34323;52.022;5.686;2023-02-11T16:05:22;14.10;;;5.60;;
48534;SDS011;34323;52.022;5.686;2023-02-11T16:07:49;8.88;;;5.32;;
48534;SDS011;34323;52.022;5.686;2023-02-11T16:10:16;9.20;;;5.20;;
48534;SDS011;34323;52.022;5.686;2023-02-11T16:15:45;12.35;;;5.93;;
48534;SDS011;34323;52.022;5.686;2023-02-11T16:18:34;10.52;;;5.07;;
48534;SDS011;34323;52.022;5.686;2023-02-11T16:21:02;10.00;;;5.22;;
48534;SDS011;34323;52.022;5.686;2023-02-11T16:23:30;10.02;;;5.55;;
48534;SDS011;34323;52.022;5.686;2023-02-11T16:26:03;12.07;;;5.53;;
48534;SDS011;34323;52.022;5.686;2023-02-11T16:28:43;10.32;;;5.07;;
48534;SDS011;34323;52.022;5.686;2023-02-11T16:31:09;9.25;;;5.15;;
48534;SDS011;34323;52.022;5.686;2023-02-11T16:33:34;12.27;;;5.10;;
48534;SDS011;34323;52.022;5.686;2023-02-11T16:36:00;8.27;;;5.15;;
48534;SDS011;34323;52.022;5.686;2023-02-11T16:38:34;12.80;;;5.15;;
48534;SDS011;34323;52.022;5.686;2023-02-11T16:40:59;10.13;;;5.45;;
48534;SDS011;34323;52.022;5.686;2023-02-11T16:43:25;9.90;;;6.10;;